createdAt,value
2022-11-12T00:01:36.034Z,8.43
2022-11-12T00:07:49.726Z,8.47
2022-11-12T00:14:01.755Z,8.30
2022-11-12T00:20:13.967Z,9.00
2022-11-12T00:26:27.125Z,8.43
2022-11-12T00:32:39.388Z,9.00
2022-11-12T00:38:51.396Z,9.17
2022-11-12T00:45:04.947Z,10.07
2022-11-12T00:51:16.491Z,8.97
2022-11-12T00:57:28.938Z,8.63
2022-11-12T01:03:43.174Z,9.03
2022-11-12T01:09:55.217Z,9.03
2022-11-12T01:16:08.311Z,9.17
2022-11-12T01:22:21.809Z,7.10
2022-11-12T01:28:33.826Z,8.03
2022-11-12T01:34:45.736Z,9.30
2022-11-12T01:40:58.912Z,9.23
2022-11-12T01:47:16.235Z,8.13
2022-11-12T01:53:31.319Z,6.80
2022-11-12T01:59:49.256Z,8.20
2022-11-12T02:06:04.418Z,7.87
2022-11-12T02:12:37.529Z,7.37
2022-11-12T02:18:51.068Z,7.17
2022-11-12T02:25:04.475Z,8.00
2022-11-12T02:31:16.675Z,8.23
2022-11-12T02:37:28.545Z,7.90
2022-11-12T02:43:42.421Z,6.97
2022-11-12T02:49:54.796Z,8.30
2022-11-12T02:56:07.190Z,8.90
2022-11-12T03:02:20.569Z,8.67
2022-11-12T03:08:32.932Z,8.70
2022-11-12T03:14:45.139Z,7.80
2022-11-12T03:20:58.653Z,8.03
2022-11-12T03:27:10.713Z,6.93
2022-11-12T03:33:22.559Z,9.43
2022-11-12T03:39:35.683Z,6.97
2022-11-12T03:45:47.724Z,9.40
2022-11-12T03:51:59.613Z,7.47
2022-11-12T03:58:12.798Z,7.93
2022-11-12T04:04:45.063Z,8.83
2022-11-12T04:10:57.236Z,7.10
2022-11-12T04:17:28.120Z,7.47
2022-11-12T04:23:41.350Z,8.10
2022-11-12T04:30:11.520Z,8.30
2022-11-12T04:36:24.710Z,9.50
2022-11-12T04:42:53.624Z,7.83
2022-11-12T04:49:05.626Z,7.83
2022-11-12T04:55:18.619Z,8.10
2022-11-12T05:01:30.728Z,7.60
2022-11-12T05:07:42.232Z,7.10
2022-11-12T05:13:55.531Z,7.70
2022-11-12T05:20:09.359Z,7.03
2022-11-12T05:26:21.377Z,6.73
2022-11-12T05:32:34.453Z,7.40
2022-11-12T05:38:46.638Z,7.67
2022-11-12T05:44:58.568Z,7.27
2022-11-12T05:51:14.084Z,6.67
2022-11-12T05:57:28.393Z,7.77
2022-11-12T06:03:40.169Z,7.70
2022-11-12T06:09:53.706Z,7.57
2022-11-12T06:16:06.235Z,7.40
2022-11-12T06:22:18.359Z,6.53
2022-11-12T06:28:31.898Z,6.97
2022-11-12T06:34:43.609Z,7.57
2022-11-12T06:40:55.549Z,7.33
2022-11-12T06:47:08.610Z,7.83
2022-11-12T06:53:20.490Z,7.63
2022-11-12T06:59:32.666Z,6.30
2022-11-12T07:05:45.902Z,7.43
2022-11-12T07:11:57.912Z,7.37
2022-11-12T07:18:09.878Z,7.53
2022-11-12T07:24:23.276Z,9.10
2022-11-12T07:30:35.620Z,7.73
2022-11-12T07:36:49.063Z,7.50
2022-11-12T07:43:02.781Z,7.27
2022-11-12T07:49:14.594Z,7.03
2022-11-12T07:55:26.754Z,7.70
2022-11-12T08:01:41.789Z,7.50
2022-11-12T08:07:56.939Z,7.30
2022-11-12T08:14:09.310Z,7.40
2022-11-12T08:20:23.195Z,6.30
2022-11-12T08:26:34.930Z,7.33
2022-11-12T08:32:46.736Z,6.90
2022-11-12T08:39:00.101Z,5.30
2022-11-12T08:45:12.640Z,5.90
2022-11-12T08:51:24.527Z,6.20
2022-11-12T08:57:42.967Z,5.60
2022-11-12T09:03:54.894Z,6.50
2022-11-12T09:10:08.444Z,6.70
2022-11-12T09:16:21.517Z,6.73
2022-11-12T09:22:34.878Z,6.40
2022-11-12T09:28:46.332Z,5.60
2022-11-12T09:34:59.612Z,5.40
2022-11-12T09:41:23.928Z,5.27
2022-11-12T09:47:39.761Z,5.60
2022-11-12T09:53:56.851Z,5.97
2022-11-12T10:00:15.432Z,6.10
2022-11-12T10:06:36.083Z,6.60
2022-11-12T10:13:03.645Z,6.07
2022-11-12T10:19:29.565Z,5.40
2022-11-12T10:25:44.738Z,5.63
2022-11-12T10:31:58.301Z,6.10
2022-11-12T10:38:17.217Z,6.70
2022-11-12T10:44:29.436Z,6.30
2022-11-12T10:50:44.372Z,7.00
2022-11-12T10:56:56.716Z,6.03
2022-11-12T11:03:18.312Z,6.33
2022-11-12T11:09:32.589Z,5.63
2022-11-12T11:16:00.343Z,6.40
2022-11-12T11:22:25.202Z,6.43
2022-11-12T11:28:46.835Z,7.20
2022-11-12T11:35:13.878Z,6.87
2022-11-12T11:41:52.085Z,6.40
2022-11-12T11:48:16.636Z,6.17
2022-11-12T11:54:52.735Z,6.20
2022-11-12T12:01:15.210Z,6.17
2022-11-12T12:07:36.011Z,7.10
2022-11-12T12:14:08.695Z,6.40
2022-11-12T12:20:25.256Z,6.10
2022-11-12T12:26:43.255Z,6.60
2022-11-12T12:32:59.968Z,5.90
2022-11-12T12:39:16.400Z,6.90
2022-11-12T12:45:47.927Z,6.83
2022-11-12T12:52:00.288Z,6.43
2022-11-12T12:58:23.007Z,7.40
2022-11-12T13:04:58.132Z,6.40
2022-11-12T13:11:10.630Z,6.87
2022-11-12T13:17:49.196Z,6.00
2022-11-12T13:24:11.293Z,6.33
2022-11-12T13:30:56.800Z,6.03
2022-11-12T13:37:20.993Z,6.90
2022-11-12T13:43:37.139Z,6.10
2022-11-12T13:49:50.071Z,6.67
2022-11-12T13:56:04.524Z,5.67
2022-11-12T14:02:26.694Z,5.60
2022-11-12T14:09:10.675Z,6.20
2022-11-12T14:15:32.813Z,6.97
2022-11-12T14:22:00.365Z,5.67
2022-11-12T14:28:27.367Z,5.23
2022-11-12T14:34:39.136Z,5.10
2022-11-12T14:40:55.297Z,5.40
2022-11-12T14:47:06.954Z,5.57
2022-11-12T14:53:27.481Z,5.50
2022-11-12T14:59:41.402Z,4.60
2022-11-12T15:06:09.403Z,4.60
2022-11-12T15:12:24.393Z,5.13
2022-11-12T15:18:39.409Z,5.40
2022-11-12T15:24:51.370Z,5.27
2022-11-12T15:31:07.205Z,4.70
2022-11-12T15:37:26.526Z,4.90
2022-11-12T15:43:42.841Z,5.17
2022-11-12T15:49:57.634Z,7.07
2022-11-12T15:56:15.602Z,7.83
2022-11-12T16:02:28.128Z,9.87
2022-11-12T16:08:39.922Z,7.90
2022-11-12T16:14:53.381Z,7.00
2022-11-12T16:21:06.813Z,6.03
2022-11-12T16:27:20.844Z,5.40
2022-11-12T16:33:34.236Z,6.00
2022-11-12T16:39:46.325Z,5.50
2022-11-12T16:45:58.071Z,7.10
2022-11-12T16:52:11.489Z,8.73
2022-11-12T16:58:23.632Z,7.10
2022-11-12T17:04:35.393Z,8.60
2022-11-12T17:10:48.965Z,7.23
2022-11-12T17:17:00.958Z,6.97
2022-11-12T17:23:12.780Z,6.67
2022-11-12T17:29:25.955Z,10.10
2022-11-12T17:35:38.105Z,11.57
2022-11-12T17:41:50.058Z,17.10
2022-11-12T17:48:02.990Z,14.50
2022-11-12T17:54:15.333Z,10.20
2022-11-12T18:00:27.456Z,9.23
2022-11-12T18:06:40.796Z,10.27
2022-11-12T18:12:53.506Z,9.33
2022-11-12T18:19:05.992Z,12.13
2022-11-12T18:25:19.594Z,12.47
2022-11-12T18:31:31.608Z,10.83
2022-11-12T18:37:43.787Z,9.20
2022-11-12T18:43:57.909Z,8.10
2022-11-12T18:50:10.908Z,9.30
2022-11-12T18:56:23.628Z,8.63
2022-11-12T19:02:36.405Z,7.00
2022-11-12T19:08:48.660Z,11.10
2022-11-12T19:14:59.953Z,10.20
2022-11-12T19:21:15.366Z,10.40
2022-11-12T19:27:27.587Z,8.80
2022-11-12T19:33:39.392Z,9.10
2022-11-12T19:39:52.668Z,8.47
2022-11-12T19:46:05.150Z,8.70
2022-11-12T19:52:17.143Z,11.17
2022-11-12T19:58:32.052Z,10.40
2022-11-12T20:04:43.565Z,10.17
2022-11-12T20:10:55.373Z,10.90
2022-11-12T20:17:08.520Z,11.77
2022-11-12T20:23:20.868Z,11.57
2022-11-12T20:29:33.127Z,9.37
2022-11-12T20:35:46.613Z,8.83
2022-11-12T20:41:58.366Z,10.17
2022-11-12T20:48:10.303Z,9.10
2022-11-12T20:54:23.673Z,8.23
2022-11-12T21:00:35.824Z,7.60
2022-11-12T21:06:47.739Z,7.60
2022-11-12T21:13:01.050Z,8.37
2022-11-12T21:19:13.244Z,6.93
2022-11-12T21:25:25.089Z,7.33
2022-11-12T21:31:38.274Z,6.50
2022-11-12T21:37:50.289Z,7.43
2022-11-12T21:44:02.229Z,7.30
2022-11-12T21:50:15.603Z,7.00
2022-11-12T21:56:28.489Z,7.70
2022-11-12T22:02:40.430Z,7.87
2022-11-12T22:08:55.701Z,8.20
2022-11-12T22:15:08.442Z,7.80
2022-11-12T22:21:22.710Z,7.40
2022-11-12T22:27:36.152Z,7.80
2022-11-12T22:33:48.928Z,8.17
2022-11-12T22:40:00.993Z,7.90
2022-11-12T22:46:15.999Z,7.07
2022-11-12T22:52:27.825Z,7.40
2022-11-12T22:58:40.210Z,6.97
2022-11-12T23:04:53.625Z,7.30
2022-11-12T23:11:06.355Z,8.07
2022-11-12T23:17:18.220Z,7.53
2022-11-12T23:23:31.370Z,7.93
2022-11-12T23:29:43.453Z,7.63
2022-11-12T23:35:55.387Z,8.20
2022-11-12T23:42:08.536Z,10.80
2022-11-12T23:48:21.411Z,8.33
2022-11-12T23:54:33.542Z,7.70
